createdAt,value
2023-05-20T00:02:24.940Z,10.75
2023-05-20T00:04:52.941Z,10.73
2023-05-20T00:07:20.859Z,10.74
2023-05-20T00:09:48.740Z,10.76
2023-05-20T00:12:16.591Z,10.77
2023-05-20T00:14:44.612Z,10.79
2023-05-20T00:17:13.906Z,10.77
2023-05-20T00:19:41.843Z,10.76
2023-05-20T00:22:09.930Z,10.75
2023-05-20T00:24:37.875Z,10.77
2023-05-20T00:27:06.009Z,10.82
2023-05-20T00:29:35.124Z,10.81
2023-05-20T00:32:03.218Z,10.83
2023-05-20T00:34:32.592Z,10.84
2023-05-20T00:37:00.481Z,10.86
2023-05-20T00:39:30.308Z,10.88
2023-05-20T00:42:00.454Z,10.86
2023-05-20T00:44:28.357Z,10.84
2023-05-20T00:46:56.879Z,10.83
2023-05-20T00:49:24.806Z,10.86
2023-05-20T00:51:54.172Z,10.85
2023-05-20T00:54:23.259Z,10.87
2023-05-20T00:56:51.556Z,10.85
2023-05-20T00:59:19.986Z,10.83
2023-05-20T01:01:48.513Z,10.85
2023-05-20T01:04:16.605Z,10.86
2023-05-20T01:06:44.472Z,10.90
2023-05-20T01:09:14.795Z,10.91
2023-05-20T01:11:49.253Z,10.91
2023-05-20T01:14:20.138Z,10.94
2023-05-20T01:16:51.031Z,10.92
2023-05-20T01:19:29.813Z,10.94
2023-05-20T01:22:00.316Z,10.94
2023-05-20T01:24:29.588Z,10.93
2023-05-20T01:26:58.234Z,10.97
2023-05-20T01:29:26.462Z,10.99
2023-05-20T01:32:02.122Z,11.00
2023-05-20T01:34:31.384Z,10.97
2023-05-20T01:36:59.537Z,11.00
2023-05-20T01:39:30.798Z,11.00
2023-05-20T01:41:59.530Z,10.96
2023-05-20T01:44:28.237Z,10.99
2023-05-20T01:46:56.299Z,11.02
2023-05-20T01:49:24.341Z,11.00
2023-05-20T01:51:52.240Z,10.98
2023-05-20T01:54:20.162Z,10.98
2023-05-20T01:56:51.372Z,10.98
2023-05-20T01:59:19.348Z,11.00
2023-05-20T02:01:47.389Z,10.99
2023-05-20T02:04:19.283Z,10.97
2023-05-20T02:06:48.023Z,10.98
2023-05-20T02:09:17.876Z,10.97
2023-05-20T02:11:46.101Z,10.98
2023-05-20T02:14:15.512Z,10.90
2023-05-20T02:16:43.757Z,10.93
2023-05-20T02:19:14.444Z,10.89
2023-05-20T02:21:44.051Z,10.89
2023-05-20T02:24:11.995Z,10.85
2023-05-20T02:26:40.004Z,10.84
2023-05-20T02:29:09.578Z,10.82
2023-05-20T02:31:38.849Z,10.81
2023-05-20T02:34:06.780Z,10.82
2023-05-20T02:36:34.812Z,10.81
2023-05-20T02:39:03.571Z,10.81
2023-05-20T02:41:32.579Z,10.80
2023-05-20T02:44:00.755Z,10.76
2023-05-20T02:46:30.410Z,10.80
2023-05-20T02:48:59.730Z,10.77
2023-05-20T02:51:28.268Z,10.76
2023-05-20T02:53:56.196Z,10.81
2023-05-20T02:56:24.686Z,10.80
2023-05-20T02:58:52.668Z,10.78
2023-05-20T03:01:20.808Z,10.80
2023-05-20T03:03:49.022Z,10.82
2023-05-20T03:06:18.381Z,10.80
2023-05-20T03:08:46.496Z,10.81
2023-05-20T03:11:16.148Z,10.80
2023-05-20T03:13:44.039Z,10.76
2023-05-20T03:16:13.141Z,10.81
2023-05-20T03:18:41.239Z,10.81
2023-05-20T03:21:09.258Z,10.75
2023-05-20T03:23:38.528Z,10.81
2023-05-20T03:26:07.036Z,10.83
2023-05-20T03:28:35.152Z,10.82
2023-05-20T03:31:04.571Z,10.82
2023-05-20T03:33:36.047Z,10.82
2023-05-20T03:36:05.258Z,10.82
2023-05-20T03:38:33.586Z,10.83
2023-05-20T03:41:03.054Z,10.75
2023-05-20T03:43:31.919Z,10.84
2023-05-20T03:45:59.932Z,10.83
2023-05-20T03:48:27.846Z,10.84
2023-05-20T03:50:55.818Z,10.83
2023-05-20T03:53:23.764Z,10.84
2023-05-20T03:55:52.140Z,10.86
2023-05-20T03:58:22.328Z,10.86
2023-05-20T04:00:51.304Z,10.87
2023-05-20T04:03:19.446Z,10.81
2023-05-20T04:05:49.051Z,10.87
2023-05-20T04:08:22.084Z,10.87
2023-05-20T04:10:50.068Z,10.84
2023-05-20T04:13:18.005Z,10.89
2023-05-20T04:15:48.584Z,10.86
2023-05-20T04:18:17.051Z,10.89
2023-05-20T04:20:45.720Z,10.95
2023-05-20T04:23:15.500Z,10.94
2023-05-20T04:25:44.652Z,10.92
2023-05-20T04:28:14.153Z,10.97
2023-05-20T04:30:42.322Z,10.96
2023-05-20T04:33:13.140Z,10.97
2023-05-20T04:35:42.845Z,10.97
2023-05-20T04:38:12.205Z,11.00
2023-05-20T04:40:40.805Z,11.01
2023-05-20T04:43:10.540Z,11.06
2023-05-20T04:45:40.398Z,11.07
2023-05-20T04:48:09.584Z,11.11
2023-05-20T04:50:41.918Z,11.09
2023-05-20T04:53:09.855Z,11.07
2023-05-20T04:55:39.096Z,11.15
2023-05-20T04:58:08.257Z,11.17
2023-05-20T05:00:36.302Z,11.23
2023-05-20T05:03:04.728Z,11.22
2023-05-20T05:05:35.339Z,11.27
2023-05-20T05:08:04.942Z,11.32
2023-05-20T05:10:33.717Z,11.36
2023-05-20T05:13:01.681Z,11.38
2023-05-20T05:15:29.829Z,11.40
2023-05-20T05:17:58.019Z,11.43
2023-05-20T05:20:26.447Z,11.49
2023-05-20T05:22:54.438Z,11.50
2023-05-20T05:25:23.761Z,11.45
2023-05-20T05:27:51.723Z,11.53
2023-05-20T05:30:19.798Z,11.51
2023-05-20T05:32:48.337Z,11.61
2023-05-20T05:35:16.791Z,11.71
2023-05-20T05:37:44.722Z,11.72
2023-05-20T05:40:13.960Z,11.78
2023-05-20T05:42:43.313Z,11.82
2023-05-20T05:45:12.397Z,11.75
2023-05-20T05:47:40.687Z,11.84
2023-05-20T05:50:10.125Z,11.89
2023-05-20T05:52:38.639Z,11.96
2023-05-20T05:55:10.641Z,12.00
2023-05-20T05:57:38.604Z,12.04
2023-05-20T06:00:10.790Z,12.16
2023-05-20T06:02:48.187Z,12.17
2023-05-20T06:05:30.188Z,12.23
2023-05-20T06:07:58.758Z,12.31
2023-05-20T06:10:27.252Z,12.35
2023-05-20T06:12:56.409Z,12.36
2023-05-20T06:15:26.353Z,12.43
2023-05-20T06:17:54.275Z,12.51
2023-05-20T06:20:22.345Z,12.53
2023-05-20T06:22:50.348Z,12.63
2023-05-20T06:25:18.726Z,12.64
2023-05-20T06:27:47.409Z,12.76
2023-05-20T06:30:18.927Z,12.88
2023-05-20T06:32:48.314Z,12.97
2023-05-20T06:35:17.617Z,13.02
2023-05-20T06:37:45.558Z,13.07
2023-05-20T06:40:14.120Z,13.11
2023-05-20T06:42:44.225Z,13.14
2023-05-20T06:45:13.914Z,13.18
2023-05-20T06:47:53.353Z,13.19
2023-05-20T06:50:21.619Z,13.22
2023-05-20T06:52:49.850Z,13.22
2023-05-20T06:55:18.096Z,13.32
2023-05-20T06:57:46.003Z,13.42
2023-05-20T07:00:15.284Z,13.44
2023-05-20T07:02:45.050Z,13.49
2023-05-20T07:05:16.919Z,13.49
2023-05-20T07:07:44.936Z,13.60
2023-05-20T07:10:13.029Z,13.62
2023-05-20T07:12:42.174Z,13.67
2023-05-20T07:15:10.996Z,13.72
2023-05-20T07:17:40.008Z,13.77
2023-05-20T07:20:09.187Z,13.85
2023-05-20T07:22:38.748Z,13.90
2023-05-20T07:25:21.805Z,14.05
2023-05-20T07:27:50.793Z,14.01
2023-05-20T07:30:19.950Z,13.98
2023-05-20T07:33:07.794Z,14.03
2023-05-20T07:35:36.824Z,14.09
2023-05-20T07:38:06.869Z,14.09
2023-05-20T07:40:36.865Z,14.04
2023-05-20T07:43:05.070Z,14.09
2023-05-20T07:45:33.384Z,14.22
2023-05-20T07:48:03.016Z,14.27
2023-05-20T07:50:31.535Z,14.46
2023-05-20T07:52:59.488Z,14.50
2023-05-20T07:55:31.763Z,14.61
2023-05-20T07:58:00.934Z,14.52
2023-05-20T08:00:30.696Z,14.52
2023-05-20T08:03:03.958Z,14.54
2023-05-20T08:05:43.100Z,14.56
2023-05-20T08:08:11.573Z,14.68
2023-05-20T08:10:55.417Z,14.75
2023-05-20T08:13:26.764Z,14.87
2023-05-20T08:15:55.211Z,14.89
2023-05-20T08:18:23.141Z,14.94
2023-05-20T08:20:51.308Z,15.11
2023-05-20T08:23:19.288Z,15.16
2023-05-20T08:25:48.312Z,15.17
2023-05-20T08:28:19.133Z,15.19
2023-05-20T08:30:48.560Z,15.25
2023-05-20T08:33:16.835Z,15.20
2023-05-20T08:35:44.807Z,15.27
2023-05-20T08:38:12.661Z,15.49
2023-05-20T08:40:40.605Z,15.60
2023-05-20T08:43:08.657Z,15.61
2023-05-20T08:45:39.356Z,15.67
2023-05-20T08:48:12.897Z,15.71
2023-05-20T08:50:40.876Z,15.68
2023-05-20T08:53:09.038Z,15.80
2023-05-20T08:55:43.059Z,15.90
2023-05-20T08:58:11.281Z,16.02
2023-05-20T09:00:42.030Z,16.18
2023-05-20T09:03:10.077Z,16.08
2023-05-20T09:05:38.271Z,16.09
2023-05-20T09:08:07.937Z,16.04
2023-05-20T09:10:37.152Z,16.21
2023-05-20T09:13:06.185Z,16.28
2023-05-20T09:15:35.815Z,16.41
2023-05-20T09:18:08.010Z,16.40
2023-05-20T09:20:38.155Z,16.47
2023-05-20T09:23:08.906Z,16.49
2023-05-20T09:25:38.280Z,16.54
2023-05-20T09:28:07.551Z,16.56
2023-05-20T09:30:35.662Z,16.63
2023-05-20T09:33:07.853Z,16.74
2023-05-20T09:35:38.095Z,16.55
2023-05-20T09:38:07.590Z,16.66
2023-05-20T09:40:37.727Z,16.57
2023-05-20T09:43:07.276Z,16.55
2023-05-20T09:45:36.687Z,16.47
2023-05-20T09:48:09.225Z,16.45
2023-05-20T09:50:37.867Z,16.68
2023-05-20T09:53:06.509Z,16.78
2023-05-20T09:55:34.717Z,16.86
2023-05-20T09:58:04.131Z,16.89
2023-05-20T10:00:33.037Z,17.01
2023-05-20T10:03:02.026Z,17.14
2023-05-20T10:05:34.335Z,16.95
2023-05-20T10:08:37.279Z,17.09
2023-05-20T10:11:14.869Z,17.20
2023-05-20T10:13:53.627Z,17.18
2023-05-20T10:16:31.110Z,17.39
2023-05-20T10:19:06.590Z,17.40
2023-05-20T10:21:36.439Z,17.40
2023-05-20T10:24:08.453Z,17.26
2023-05-20T10:26:37.656Z,17.21
2023-05-20T10:29:16.577Z,17.35
2023-05-20T10:31:50.631Z,17.16
2023-05-20T10:34:19.989Z,17.29
2023-05-20T10:36:59.625Z,17.41
2023-05-20T10:39:28.946Z,17.39
2023-05-20T10:42:08.239Z,17.45
2023-05-20T10:44:43.552Z,17.50
2023-05-20T10:49:45.290Z,17.66
2023-05-20T10:52:15.813Z,17.66
2023-05-20T10:54:49.397Z,17.89
2023-05-20T10:57:20.485Z,18.03
2023-05-20T10:59:49.364Z,18.26
2023-05-20T11:02:18.956Z,18.31
2023-05-20T11:04:48.024Z,18.21
2023-05-20T11:07:28.402Z,18.37
2023-05-20T11:09:56.364Z,18.44
2023-05-20T11:12:25.435Z,18.40
2023-05-20T11:14:53.529Z,18.34
2023-05-20T11:17:21.749Z,18.31
2023-05-20T11:19:50.043Z,18.25
2023-05-20T11:22:17.922Z,18.21
2023-05-20T11:24:47.577Z,18.28
2023-05-20T11:27:15.659Z,18.44
2023-05-20T11:29:43.829Z,18.40
2023-05-20T11:32:11.820Z,18.50
2023-05-20T11:34:40.714Z,18.70
2023-05-20T11:37:09.047Z,18.76
2023-05-20T11:39:38.095Z,18.77
2023-05-20T11:42:07.565Z,18.86
2023-05-20T11:44:35.418Z,18.82
2023-05-20T11:47:04.580Z,18.89
2023-05-20T11:49:40.844Z,18.97
2023-05-20T11:52:11.760Z,18.85
2023-05-20T11:54:40.221Z,18.93
2023-05-20T11:57:09.510Z,19.00
2023-05-20T11:59:37.645Z,19.03
2023-05-20T12:02:05.584Z,19.09
2023-05-20T12:04:33.484Z,19.16
2023-05-20T12:07:01.891Z,19.18
2023-05-20T12:09:29.770Z,19.22
2023-05-20T12:11:57.686Z,19.40
2023-05-20T12:14:27.052Z,19.50
2023-05-20T12:16:55.170Z,19.46
2023-05-20T12:19:23.121Z,19.51
2023-05-20T12:21:52.717Z,19.35
2023-05-20T12:24:20.608Z,19.47
2023-05-20T12:26:48.872Z,19.46
2023-05-20T12:29:16.777Z,19.40
2023-05-20T12:31:46.046Z,19.62
2023-05-20T12:34:14.014Z,19.57
2023-05-20T12:36:42.385Z,19.59
2023-05-20T12:39:11.066Z,19.56
2023-05-20T12:41:39.100Z,19.52
2023-05-20T12:44:06.982Z,19.77
2023-05-20T12:46:35.099Z,19.62
2023-05-20T12:49:04.696Z,19.54
2023-05-20T12:51:32.588Z,19.74
2023-05-20T12:54:00.576Z,19.98
2023-05-20T12:56:28.537Z,19.86
2023-05-20T12:58:56.496Z,19.82
2023-05-20T13:01:24.493Z,19.80
2023-05-20T13:03:53.430Z,19.74
2023-05-20T13:06:22.694Z,19.83
2023-05-20T13:08:50.822Z,19.85
2023-05-20T13:11:18.699Z,19.78
2023-05-20T13:13:46.605Z,19.89
2023-05-20T13:16:16.668Z,20.02
2023-05-20T13:18:44.706Z,20.11
2023-05-20T13:21:12.607Z,20.22
2023-05-20T13:23:42.803Z,20.21
2023-05-20T13:26:11.073Z,20.23
2023-05-20T13:28:38.927Z,20.34
2023-05-20T13:31:07.747Z,20.40
2023-05-20T13:33:35.766Z,20.42
2023-05-20T13:36:03.908Z,20.51
2023-05-20T13:38:32.684Z,20.58
2023-05-20T13:41:03.171Z,20.38
2023-05-20T13:43:33.225Z,20.34
2023-05-20T13:46:01.306Z,20.43
2023-05-20T13:48:29.410Z,20.46
2023-05-20T13:50:59.723Z,20.59
2023-05-20T13:53:27.666Z,20.67
2023-05-20T13:55:55.741Z,20.73
2023-05-20T13:58:25.003Z,20.69
2023-05-20T14:00:53.734Z,20.60
2023-05-20T14:03:22.056Z,20.72
2023-05-20T14:05:50.026Z,20.75
2023-05-20T14:08:17.914Z,20.74
2023-05-20T14:10:45.764Z,20.73
2023-05-20T14:13:13.632Z,20.71
2023-05-20T14:15:43.735Z,20.80
2023-05-20T14:18:11.770Z,20.78
2023-05-20T14:20:39.770Z,20.86
2023-05-20T14:23:07.660Z,20.97
2023-05-20T14:25:36.489Z,20.92
2023-05-20T14:28:04.444Z,20.89
2023-05-20T14:30:32.597Z,20.89
2023-05-20T14:33:02.230Z,20.92
2023-05-20T14:35:30.215Z,20.93
2023-05-20T14:37:58.175Z,20.94
2023-05-20T14:40:26.078Z,20.96
2023-05-20T14:42:53.972Z,20.88
2023-05-20T14:45:21.847Z,20.86
2023-05-20T14:47:49.823Z,20.79
2023-05-20T14:50:19.200Z,20.77
2023-05-20T14:52:47.064Z,20.73
2023-05-20T14:55:14.970Z,20.72
2023-05-20T14:57:43.051Z,20.74
2023-05-20T15:00:14.678Z,20.78
2023-05-20T15:02:42.713Z,20.77
2023-05-20T15:05:11.972Z,20.80
2023-05-20T15:07:41.581Z,20.78
2023-05-20T15:10:10.085Z,20.72
2023-05-20T15:12:37.954Z,20.73
2023-05-20T15:15:06.838Z,20.67
2023-05-20T15:17:34.755Z,20.70
2023-05-20T15:20:02.981Z,20.78
2023-05-20T15:22:30.808Z,20.90
2023-05-20T15:25:00.043Z,21.23
2023-05-20T15:27:29.633Z,21.42
2023-05-20T15:29:57.582Z,21.34
2023-05-20T15:32:25.702Z,21.31
2023-05-20T15:34:53.673Z,21.53
2023-05-20T15:37:22.056Z,21.72
2023-05-20T15:39:50.001Z,21.80
2023-05-20T15:42:19.328Z,21.98
2023-05-20T15:44:47.350Z,22.14
2023-05-20T15:47:15.212Z,22.17
2023-05-20T15:49:43.204Z,22.00
2023-05-20T15:52:11.124Z,21.83
2023-05-20T15:54:39.038Z,21.80
2023-05-20T15:57:07.659Z,22.18
2023-05-20T15:59:37.007Z,22.00
2023-05-20T16:02:04.987Z,22.02
2023-05-20T16:04:33.639Z,21.81
2023-05-20T16:07:01.888Z,21.68
2023-05-20T16:09:29.887Z,21.70
2023-05-20T16:11:57.843Z,21.88
2023-05-20T16:14:25.862Z,21.80
2023-05-20T16:16:55.166Z,21.66
2023-05-20T16:19:23.260Z,21.87
2023-05-20T16:21:51.367Z,21.78
2023-05-20T16:24:19.271Z,21.66
2023-05-20T16:26:47.171Z,21.56
2023-05-20T16:29:16.645Z,21.51
2023-05-20T16:31:46.607Z,21.49
2023-05-20T16:34:16.863Z,21.46
2023-05-20T16:36:46.302Z,21.41
2023-05-20T16:39:14.681Z,21.45
2023-05-20T16:41:43.226Z,21.39
2023-05-20T16:44:11.487Z,21.38
2023-05-20T16:46:39.416Z,21.38
2023-05-20T16:49:07.418Z,21.39
2023-05-20T16:51:36.722Z,21.37
2023-05-20T16:54:04.972Z,21.32
2023-05-20T16:56:33.402Z,21.28
2023-05-20T16:59:01.290Z,21.25
2023-05-20T17:01:29.639Z,21.16
2023-05-20T17:03:57.685Z,21.09
2023-05-20T17:06:25.632Z,21.14
2023-05-20T17:08:54.957Z,21.11
2023-05-20T17:11:22.838Z,21.05
2023-05-20T17:13:50.715Z,21.01
2023-05-20T17:16:18.850Z,20.91
2023-05-20T17:18:48.312Z,20.76
2023-05-20T17:21:20.205Z,20.65
2023-05-20T17:23:48.138Z,20.60
2023-05-20T17:26:17.605Z,20.49
2023-05-20T17:28:45.531Z,20.42
2023-05-20T17:31:13.399Z,20.31
2023-05-20T17:33:41.329Z,20.26
2023-05-20T17:36:09.258Z,20.17
2023-05-20T17:38:37.170Z,20.16
2023-05-20T17:41:05.231Z,20.12
2023-05-20T17:43:34.737Z,20.09
2023-05-20T17:46:02.686Z,19.99
2023-05-20T17:48:30.595Z,19.95
2023-05-20T17:50:59.725Z,19.92
2023-05-20T17:53:27.543Z,19.85
2023-05-20T17:55:55.587Z,19.75
2023-05-20T17:58:25.144Z,19.73
2023-05-20T18:00:54.616Z,19.69
2023-05-20T18:03:23.096Z,19.67
2023-05-20T18:05:52.290Z,19.60
2023-05-20T18:08:21.732Z,19.52
2023-05-20T18:10:49.630Z,19.49
2023-05-20T18:13:17.490Z,19.42
2023-05-20T18:15:45.666Z,19.34
2023-05-20T18:18:15.190Z,19.33
2023-05-20T18:20:43.114Z,19.28
2023-05-20T18:23:11.515Z,19.24
2023-05-20T18:25:41.753Z,19.17
2023-05-20T18:28:11.213Z,19.11
2023-05-20T18:30:39.071Z,19.08
2023-05-20T18:33:07.375Z,19.00
2023-05-20T18:35:36.726Z,18.95
2023-05-20T18:38:04.682Z,18.92
2023-05-20T18:40:32.629Z,18.87
2023-05-20T18:43:00.532Z,18.84
2023-05-20T18:45:28.482Z,18.79
2023-05-20T18:47:59.253Z,18.75
2023-05-20T18:50:27.583Z,18.68
2023-05-20T18:52:56.964Z,18.66
2023-05-20T18:55:24.928Z,18.65
2023-05-20T18:57:52.920Z,18.57
2023-05-20T19:00:21.216Z,18.51
2023-05-20T19:02:49.166Z,18.49
2023-05-20T19:05:17.076Z,18.45
2023-05-20T19:07:45.020Z,18.41
2023-05-20T19:10:15.183Z,18.37
2023-05-20T19:12:43.698Z,18.32
2023-05-20T19:15:12.840Z,18.31
2023-05-20T19:17:40.805Z,18.24
2023-05-20T19:20:10.515Z,18.20
2023-05-20T19:22:38.731Z,18.16
2023-05-20T19:25:07.707Z,18.10
2023-05-20T19:27:36.970Z,18.08
2023-05-20T19:30:05.158Z,18.04
2023-05-20T19:32:33.238Z,18.01
2023-05-20T19:35:01.293Z,17.99
2023-05-20T19:37:29.287Z,17.96
2023-05-20T19:39:57.223Z,17.94
2023-05-20T19:42:25.163Z,17.93
2023-05-20T19:44:54.536Z,17.88
2023-05-20T19:47:22.795Z,17.86
2023-05-20T19:49:50.946Z,17.81
2023-05-20T19:52:19.971Z,17.77
2023-05-20T19:54:48.902Z,17.78
2023-05-20T19:57:16.983Z,17.69
2023-05-20T19:59:44.969Z,17.68
2023-05-20T20:02:14.827Z,17.66
2023-05-20T20:04:44.087Z,17.64
2023-05-20T20:07:12.237Z,17.58
2023-05-20T20:09:40.723Z,17.57
2023-05-20T20:12:09.291Z,17.57
2023-05-20T20:14:38.093Z,17.54
2023-05-20T20:17:06.241Z,17.49
2023-05-20T20:19:35.565Z,17.48
2023-05-20T20:22:03.670Z,17.47
2023-05-20T20:24:31.642Z,17.42
2023-05-20T20:26:59.719Z,17.38
2023-05-20T20:29:27.597Z,17.36
2023-05-20T20:31:56.041Z,17.30
2023-05-20T20:34:24.049Z,17.28
2023-05-20T20:36:54.797Z,17.26
2023-05-20T20:39:25.071Z,17.24
2023-05-20T20:41:54.491Z,17.23
2023-05-20T20:44:22.737Z,17.20
2023-05-20T20:46:51.504Z,17.18
2023-05-20T20:49:19.904Z,17.11
2023-05-20T20:51:48.558Z,17.13
2023-05-20T20:54:17.895Z,17.09
2023-05-20T20:56:47.144Z,17.10
2023-05-20T20:59:16.008Z,17.05
2023-05-20T21:01:45.075Z,17.04
2023-05-20T21:04:13.925Z,17.01
2023-05-20T21:06:45.835Z,16.97
2023-05-20T21:09:14.149Z,16.97
2023-05-20T21:11:45.186Z,16.90
2023-05-20T21:14:14.027Z,16.90
2023-05-20T21:16:43.139Z,16.89
2023-05-20T21:19:11.178Z,16.85
2023-05-20T21:21:39.655Z,16.85
2023-05-20T21:24:07.853Z,16.84
2023-05-20T21:26:35.803Z,16.81
2023-05-20T21:29:05.966Z,16.78
2023-05-20T21:31:33.948Z,16.75
2023-05-20T21:34:02.111Z,16.69
2023-05-20T21:36:30.686Z,16.68
2023-05-20T21:38:58.688Z,16.68
2023-05-20T21:41:27.244Z,16.67
2023-05-20T21:43:55.163Z,16.59
2023-05-20T21:46:24.434Z,16.58
2023-05-20T21:48:52.376Z,16.53
2023-05-20T21:51:20.260Z,16.49
2023-05-20T21:53:48.222Z,16.47
2023-05-20T21:56:16.196Z,16.45
2023-05-20T21:58:44.088Z,16.43
2023-05-20T22:01:12.082Z,16.41
2023-05-20T22:03:47.952Z,16.37
2023-05-20T22:06:17.616Z,16.36
2023-05-20T22:08:45.480Z,16.29
2023-05-20T22:11:13.362Z,16.27
2023-05-20T22:13:41.522Z,16.23
2023-05-20T22:16:09.998Z,16.20
2023-05-20T22:18:38.504Z,16.16
2023-05-20T22:21:07.881Z,16.15
2023-05-20T22:23:35.966Z,16.14
2023-05-20T22:26:04.896Z,16.14
2023-05-20T22:28:32.841Z,16.11
2023-05-20T22:31:00.690Z,16.10
2023-05-20T22:33:28.648Z,16.05
2023-05-20T22:35:58.086Z,16.01
2023-05-20T22:38:29.187Z,15.97
2023-05-20T22:40:57.032Z,15.95
2023-05-20T22:43:24.965Z,15.93
2023-05-20T22:45:52.889Z,15.94
2023-05-20T22:48:23.006Z,15.91
2023-05-20T22:50:51.188Z,15.84
2023-05-20T22:53:19.082Z,15.78
2023-05-20T22:55:48.440Z,15.78
2023-05-20T22:58:16.479Z,15.83
2023-05-20T23:00:44.979Z,15.79
2023-05-20T23:03:13.330Z,15.79
2023-05-20T23:05:41.236Z,15.75
2023-05-20T23:08:09.119Z,15.76
2023-05-20T23:10:36.980Z,15.74
2023-05-20T23:13:06.430Z,15.72
2023-05-20T23:15:34.472Z,15.68
2023-05-20T23:18:02.626Z,15.68
2023-05-20T23:20:30.545Z,15.68
2023-05-20T23:23:00.128Z,15.61
2023-05-20T23:25:31.483Z,15.60
2023-05-20T23:27:59.577Z,15.61
2023-05-20T23:30:29.531Z,15.61
2023-05-20T23:32:57.873Z,15.60
2023-05-20T23:35:25.783Z,15.60
2023-05-20T23:37:53.664Z,15.56
2023-05-20T23:40:21.609Z,15.56
2023-05-20T23:42:49.444Z,15.56
2023-05-20T23:45:17.408Z,15.53
2023-05-20T23:47:46.913Z,15.48
2023-05-20T23:50:14.935Z,15.44
2023-05-20T23:52:42.790Z,15.44
2023-05-20T23:55:14.271Z,15.40
2023-05-20T23:57:42.284Z,15.42
